createdAt,value
2022-12-08T00:02:13.938Z,10.83
2022-12-08T00:04:56.528Z,13.13
2022-12-08T00:07:43.540Z,12.47
2022-12-08T00:10:40.233Z,10.87
2022-12-08T00:13:00.681Z,13.07
2022-12-08T00:15:29.043Z,12.60
2022-12-08T00:17:57.644Z,12.07
2022-12-08T00:20:26.415Z,12.07
2022-12-08T00:22:56.381Z,11.90
2022-12-08T00:25:25.030Z,12.30
2022-12-08T00:27:53.579Z,11.43
2022-12-08T00:30:22.164Z,12.70
2022-12-08T00:32:51.056Z,12.40
2022-12-08T00:35:19.523Z,13.33
2022-12-08T00:37:48.062Z,11.97
2022-12-08T00:40:18.097Z,12.63
2022-12-08T00:42:46.487Z,12.77
2022-12-08T00:45:14.949Z,13.27
2022-12-08T00:47:43.388Z,12.77
2022-12-08T00:50:12.322Z,12.17
2022-12-08T00:52:40.934Z,12.33
2022-12-08T00:55:09.762Z,12.30
2022-12-08T00:57:39.433Z,12.10
2022-12-08T01:00:08.654Z,12.97
2022-12-08T01:02:37.191Z,11.77
2022-12-08T01:05:06.130Z,9.83
2022-12-08T01:07:34.549Z,11.33
2022-12-08T01:10:03.468Z,11.20
2022-12-08T01:12:32.188Z,11.80
2022-12-08T01:15:02.769Z,11.70
2022-12-08T01:17:31.410Z,10.97
2022-12-08T01:19:59.886Z,10.97
2022-12-08T01:22:28.346Z,9.97
2022-12-08T01:24:56.912Z,11.53
2022-12-08T01:27:25.442Z,11.73
2022-12-08T01:29:53.902Z,12.93
2022-12-08T01:32:23.672Z,11.93
2022-12-08T01:34:52.554Z,13.47
2022-12-08T01:37:20.936Z,13.63
2022-12-08T01:39:49.371Z,13.77
2022-12-08T01:42:21.767Z,13.80
2022-12-08T01:45:02.619Z,14.27
2022-12-08T01:47:36.538Z,13.10
2022-12-08T01:50:06.179Z,16.43
2022-12-08T01:52:36.962Z,13.70
2022-12-08T01:55:08.348Z,13.47
2022-12-08T01:57:38.444Z,14.53
2022-12-08T02:00:08.645Z,14.80
2022-12-08T02:02:41.739Z,13.50
2022-12-08T02:05:11.560Z,14.20
2022-12-08T02:07:40.108Z,13.73
2022-12-08T02:10:09.114Z,12.47
2022-12-08T02:12:37.978Z,13.53
2022-12-08T02:15:07.114Z,14.63
2022-12-08T02:17:46.246Z,12.90
2022-12-08T02:20:27.252Z,12.63
2022-12-08T02:23:01.101Z,10.80
2022-12-08T02:25:33.073Z,10.73
2022-12-08T02:28:04.403Z,13.80
2022-12-08T02:30:38.050Z,12.00
2022-12-08T02:33:30.500Z,12.07
2022-12-08T02:36:01.605Z,11.60
2022-12-08T02:38:33.851Z,11.50
2022-12-08T02:41:17.263Z,10.87
2022-12-08T02:43:46.802Z,10.30
2022-12-08T02:46:17.512Z,11.27
2022-12-08T02:48:46.301Z,9.53
2022-12-08T02:51:16.362Z,10.87
2022-12-08T02:53:46.446Z,8.73
2022-12-08T02:56:21.579Z,10.73
2022-12-08T02:58:56.897Z,11.57
2022-12-08T03:01:33.019Z,10.50
2022-12-08T03:04:07.575Z,9.80
2022-12-08T03:06:42.642Z,10.80
2022-12-08T03:09:15.047Z,10.20
2022-12-08T03:11:46.205Z,10.70
2022-12-08T03:14:17.186Z,8.67
2022-12-08T03:16:47.564Z,11.47
2022-12-08T03:19:18.667Z,11.93
2022-12-08T03:21:49.583Z,10.20
2022-12-08T03:24:19.152Z,10.63
2022-12-08T03:26:48.303Z,9.87
2022-12-08T03:29:16.658Z,9.97
2022-12-08T03:31:47.727Z,9.63
2022-12-08T03:34:16.829Z,6.80
2022-12-08T03:36:45.926Z,10.37
2022-12-08T03:39:15.983Z,10.37
2022-12-08T03:41:44.499Z,12.17
2022-12-08T03:44:12.796Z,10.33
2022-12-08T03:46:41.489Z,9.37
2022-12-08T03:49:09.836Z,9.27
2022-12-08T03:51:38.284Z,10.60
2022-12-08T03:54:06.941Z,11.67
2022-12-08T03:56:38.045Z,9.57
2022-12-08T03:59:06.457Z,11.07
2022-12-08T04:01:34.964Z,10.23
2022-12-08T04:04:03.352Z,10.60
2022-12-08T04:06:32.114Z,11.40
2022-12-08T04:09:00.522Z,10.50
2022-12-08T04:11:28.889Z,11.63
2022-12-08T04:13:58.604Z,12.27
2022-12-08T04:16:28.496Z,10.43
2022-12-08T04:18:57.113Z,11.03
2022-12-08T04:21:25.705Z,11.93
2022-12-08T04:24:00.630Z,11.70
2022-12-08T04:26:29.893Z,11.20
2022-12-08T04:28:59.618Z,11.27
2022-12-08T04:31:28.094Z,11.03
2022-12-08T04:33:56.616Z,11.60
2022-12-08T04:36:25.045Z,12.27
2022-12-08T04:38:53.991Z,10.40
2022-12-08T04:41:22.508Z,10.57
2022-12-08T04:43:51.007Z,10.63
2022-12-08T04:46:20.566Z,12.03
2022-12-08T04:48:49.094Z,10.97
2022-12-08T04:51:17.921Z,11.40
2022-12-08T04:53:47.232Z,10.93
2022-12-08T04:56:16.173Z,11.93
2022-12-08T04:58:44.693Z,11.07
2022-12-08T05:01:13.767Z,11.13
2022-12-08T05:03:43.900Z,13.00
2022-12-08T05:06:12.770Z,11.03
2022-12-08T05:08:41.277Z,11.40
2022-12-08T05:11:10.482Z,10.70
2022-12-08T05:13:38.837Z,10.03
2022-12-08T05:16:08.216Z,11.53
2022-12-08T05:18:37.112Z,11.03
2022-12-08T05:21:07.426Z,10.30
2022-12-08T05:23:36.308Z,11.53
2022-12-08T05:26:04.846Z,10.23
2022-12-08T05:28:42.637Z,10.77
2022-12-08T05:31:11.941Z,11.93
2022-12-08T05:33:40.556Z,10.33
2022-12-08T05:36:10.987Z,11.47
2022-12-08T05:38:39.708Z,11.80
2022-12-08T05:41:08.568Z,10.70
2022-12-08T05:43:37.448Z,10.47
2022-12-08T05:46:06.474Z,11.57
2022-12-08T05:48:35.297Z,12.40
2022-12-08T05:51:04.344Z,11.57
2022-12-08T05:53:34.324Z,10.03
2022-12-08T05:56:02.584Z,10.90
2022-12-08T05:58:31.047Z,10.90
2022-12-08T06:00:59.770Z,10.17
2022-12-08T06:03:28.359Z,9.00
2022-12-08T06:05:56.819Z,10.03
2022-12-08T06:08:25.552Z,10.53
2022-12-08T06:10:55.501Z,9.60
2022-12-08T06:13:24.010Z,9.20
2022-12-08T06:15:52.907Z,9.93
2022-12-08T06:18:21.848Z,10.90
2022-12-08T06:20:50.481Z,9.40
2022-12-08T06:23:18.926Z,10.10
2022-12-08T06:25:47.827Z,10.63
2022-12-08T06:28:17.661Z,11.63
2022-12-08T06:30:45.802Z,11.30
2022-12-08T06:33:14.418Z,10.23
2022-12-08T06:35:42.891Z,9.50
2022-12-08T06:38:11.463Z,9.60
2022-12-08T06:40:40.164Z,7.97
2022-12-08T06:43:08.520Z,9.57
2022-12-08T06:45:38.305Z,8.27
2022-12-08T06:48:06.738Z,7.50
2022-12-08T06:50:35.127Z,7.03
2022-12-08T06:53:05.641Z,6.67
2022-12-08T06:58:22.506Z,7.17
2022-12-08T07:00:52.339Z,6.90
2022-12-08T07:03:20.735Z,7.67
2022-12-08T07:05:49.187Z,5.93
2022-12-08T07:08:17.615Z,7.30
2022-12-08T07:10:46.197Z,7.60
2022-12-08T07:13:14.698Z,6.97
2022-12-08T07:15:43.161Z,8.03
2022-12-08T07:18:12.946Z,6.87
2022-12-08T07:20:41.489Z,7.80
2022-12-08T07:23:09.838Z,8.03
2022-12-08T07:25:38.229Z,7.07
2022-12-08T07:28:10.812Z,7.93
2022-12-08T07:30:39.613Z,9.03
2022-12-08T07:33:08.127Z,7.83
2022-12-08T07:35:38.113Z,8.17
2022-12-08T07:38:06.443Z,7.87
2022-12-08T07:40:35.140Z,8.50
2022-12-08T07:43:03.509Z,8.40
2022-12-08T07:45:32.119Z,8.43
2022-12-08T07:48:00.768Z,9.10
2022-12-08T07:50:29.065Z,11.03
2022-12-08T07:52:58.854Z,8.47
2022-12-08T07:55:27.519Z,10.03
2022-12-08T07:57:55.974Z,10.97
2022-12-08T08:00:24.934Z,9.70
2022-12-08T08:02:53.608Z,10.10
2022-12-08T08:05:22.030Z,9.17
2022-12-08T08:07:50.553Z,9.43
2022-12-08T08:10:20.428Z,9.57
2022-12-08T08:12:48.888Z,8.73
2022-12-08T08:15:17.894Z,9.03
2022-12-08T08:17:46.211Z,8.33
2022-12-08T08:20:15.000Z,8.60
2022-12-08T08:22:43.401Z,8.60
2022-12-08T08:25:11.720Z,7.77
2022-12-08T08:27:41.487Z,8.30
2022-12-08T08:30:15.230Z,8.70
2022-12-08T08:32:46.672Z,8.00
2022-12-08T08:35:15.435Z,8.47
2022-12-08T08:37:48.619Z,9.17
2022-12-08T08:40:17.704Z,8.77
2022-12-08T08:42:47.110Z,8.67
2022-12-08T08:45:15.419Z,8.10
2022-12-08T08:47:43.834Z,7.97
2022-12-08T08:50:12.497Z,8.63
2022-12-08T08:52:41.021Z,9.30
2022-12-08T08:55:09.619Z,9.03
2022-12-08T08:57:37.999Z,8.17
2022-12-08T09:00:10.205Z,9.33
2022-12-08T09:02:38.867Z,8.10
2022-12-08T09:05:08.142Z,9.50
2022-12-08T09:07:36.592Z,8.03
2022-12-08T09:10:05.537Z,9.17
2022-12-08T09:12:34.232Z,9.10
2022-12-08T09:15:02.467Z,9.27
2022-12-08T09:17:32.268Z,9.10
2022-12-08T09:20:01.340Z,8.90
2022-12-08T09:22:30.015Z,9.77
2022-12-08T09:24:58.315Z,9.67
2022-12-08T09:27:26.706Z,9.57
2022-12-08T09:29:55.037Z,9.17
2022-12-08T09:32:23.670Z,9.50
2022-12-08T09:34:54.325Z,10.70
2022-12-08T09:37:22.763Z,10.00
2022-12-08T09:39:51.081Z,10.17
2022-12-08T09:42:25.686Z,9.77
2022-12-08T09:44:57.439Z,8.47
2022-12-08T09:47:33.794Z,7.27
2022-12-08T09:50:07.535Z,7.87
2022-12-08T09:52:40.880Z,6.73
2022-12-08T09:55:13.600Z,5.73
2022-12-08T09:57:42.034Z,6.57
2022-12-08T10:00:14.668Z,6.50
2022-12-08T10:02:43.258Z,6.67
2022-12-08T10:05:15.721Z,7.37
2022-12-08T10:07:47.540Z,5.80
2022-12-08T10:10:21.652Z,4.90
2022-12-08T10:12:54.051Z,4.97
2022-12-08T10:15:33.595Z,4.43
2022-12-08T10:18:03.066Z,5.27
2022-12-08T10:20:37.529Z,4.40
2022-12-08T10:23:11.155Z,4.03
2022-12-08T10:25:41.179Z,5.23
2022-12-08T10:28:10.200Z,3.10
2022-12-08T10:30:38.714Z,4.30
2022-12-08T10:33:07.409Z,4.13
2022-12-08T10:35:46.306Z,4.33
2022-12-08T10:38:23.040Z,4.37
2022-12-08T10:40:52.741Z,4.43
2022-12-08T10:43:23.886Z,4.43
2022-12-08T10:45:52.331Z,4.30
2022-12-08T10:48:21.975Z,4.43
2022-12-08T10:50:55.470Z,3.83
2022-12-08T10:53:25.368Z,5.03
2022-12-08T10:55:55.134Z,4.87
2022-12-08T10:58:41.516Z,4.03
2022-12-08T11:01:12.978Z,3.70
2022-12-08T11:03:45.567Z,3.60
2022-12-08T11:06:17.867Z,3.50
2022-12-08T11:08:48.635Z,3.93
2022-12-08T11:11:17.080Z,4.53
2022-12-08T11:13:45.502Z,3.53
2022-12-08T11:16:15.423Z,4.47
2022-12-08T11:18:45.139Z,3.70
2022-12-08T11:21:15.110Z,4.30
2022-12-08T11:23:47.914Z,4.23
2022-12-08T11:26:21.246Z,4.13
2022-12-08T11:28:49.587Z,3.73
2022-12-08T11:31:24.964Z,4.73
2022-12-08T11:33:54.141Z,4.50
2022-12-08T11:36:24.191Z,5.40
2022-12-08T11:39:01.982Z,4.63
2022-12-08T11:41:33.163Z,4.10
2022-12-08T11:44:05.471Z,5.47
2022-12-08T11:46:36.399Z,5.83
2022-12-08T11:49:06.982Z,5.57
2022-12-08T11:51:37.322Z,4.83
2022-12-08T11:54:15.479Z,5.63
2022-12-08T11:56:46.708Z,6.13
2022-12-08T11:59:19.336Z,5.53
2022-12-08T12:01:48.189Z,6.53
2022-12-08T12:04:19.974Z,6.67
2022-12-08T12:06:55.956Z,6.83
2022-12-08T12:09:31.585Z,6.20
2022-12-08T12:12:17.000Z,6.87
2022-12-08T12:14:53.923Z,6.83
2022-12-08T12:17:28.533Z,6.63
2022-12-08T12:19:57.449Z,8.03
2022-12-08T12:22:26.280Z,6.60
2022-12-08T12:24:56.003Z,6.97
2022-12-08T12:27:27.144Z,7.40
2022-12-08T12:29:57.505Z,7.80
2022-12-08T12:32:26.381Z,8.07
2022-12-08T12:34:56.265Z,9.83
2022-12-08T12:37:25.772Z,8.63
2022-12-08T12:39:59.416Z,7.97
2022-12-08T12:42:41.928Z,7.60
2022-12-08T12:45:28.179Z,8.83
2022-12-08T12:48:11.429Z,8.53
2022-12-08T12:50:43.651Z,7.10
2022-12-08T12:53:26.837Z,8.73
2022-12-08T12:55:57.982Z,8.07
2022-12-08T12:58:38.000Z,8.77
2022-12-08T13:01:25.522Z,10.10
2022-12-08T13:04:04.128Z,7.37
2022-12-08T13:06:39.276Z,8.10
2022-12-08T13:09:08.380Z,9.87
2022-12-08T13:11:48.854Z,7.43
2022-12-08T13:14:31.217Z,6.90
2022-12-08T13:17:00.703Z,5.13
2022-12-08T13:19:32.213Z,5.87
2022-12-08T13:22:01.172Z,6.60
2022-12-08T13:24:36.170Z,5.87
2022-12-08T13:27:37.833Z,5.73
2022-12-08T13:30:25.625Z,6.00
2022-12-08T13:35:48.547Z,4.97
2022-12-08T13:38:19.076Z,5.37
2022-12-08T13:40:48.256Z,5.77
2022-12-08T13:43:19.074Z,5.53
2022-12-08T13:46:48.811Z,5.77
2022-12-08T13:57:26.164Z,5.83
2022-12-08T13:59:54.514Z,5.87
2022-12-08T14:02:27.131Z,5.63
2022-12-08T14:07:46.102Z,5.00
2022-12-08T14:10:17.986Z,6.83
2022-12-08T14:12:48.545Z,6.10
2022-12-08T14:15:17.713Z,7.13
2022-12-08T14:17:52.704Z,7.33
2022-12-08T14:20:24.939Z,7.20
2022-12-08T14:22:53.792Z,6.23
2022-12-08T14:25:23.062Z,6.20
2022-12-08T14:27:51.679Z,7.03
2022-12-08T14:30:22.411Z,7.53
2022-12-08T14:32:51.469Z,6.17
2022-12-08T14:35:21.962Z,7.00
2022-12-08T14:37:52.372Z,7.50
2022-12-08T14:40:24.281Z,5.70
2022-12-08T14:42:53.736Z,5.90
2022-12-08T14:45:22.253Z,5.97
2022-12-08T14:47:51.217Z,6.37
2022-12-08T14:50:40.846Z,5.70
2022-12-08T14:53:15.913Z,5.20
2022-12-08T14:55:45.185Z,6.93
2022-12-08T14:58:18.522Z,5.70
2022-12-08T15:00:48.144Z,5.90
2022-12-08T15:03:17.718Z,6.03
2022-12-08T15:05:46.361Z,5.80
2022-12-08T15:08:16.552Z,5.90
2022-12-08T15:10:48.192Z,5.77
2022-12-08T15:13:23.713Z,5.77
2022-12-08T15:15:53.248Z,5.63
2022-12-08T15:18:23.519Z,5.40
2022-12-08T15:20:54.438Z,5.03
2022-12-08T15:23:27.981Z,4.63
2022-12-08T15:25:57.110Z,4.20
2022-12-08T15:28:29.662Z,5.17
2022-12-08T15:30:59.120Z,4.00
2022-12-08T15:33:27.712Z,3.50
2022-12-08T15:35:56.102Z,4.27
2022-12-08T15:38:27.756Z,6.17
2022-12-08T15:40:57.546Z,4.43
2022-12-08T15:43:26.070Z,3.93
2022-12-08T15:45:59.651Z,4.13
2022-12-08T15:48:29.446Z,6.67
2022-12-08T15:50:57.750Z,6.10
2022-12-08T15:53:27.254Z,12.90
2022-12-08T15:58:53.408Z,9.07
2022-12-08T16:01:23.616Z,4.03
2022-12-08T16:09:33.001Z,4.87
2022-12-08T16:12:19.196Z,6.53
2022-12-08T16:15:48.121Z,4.30
2022-12-08T16:17:36.654Z,5.10
2022-12-08T16:20:05.935Z,4.60
2022-12-08T16:25:25.117Z,6.13
2022-12-08T16:28:17.407Z,5.30
2022-12-08T16:30:43.253Z,6.73
2022-12-08T16:33:12.344Z,7.00
2022-12-08T16:35:41.079Z,8.87
2022-12-08T16:38:09.714Z,14.17
2022-12-08T16:40:59.854Z,7.70
2022-12-08T16:43:27.175Z,8.23
2022-12-08T16:45:55.709Z,7.67
2022-12-08T16:48:24.224Z,7.17
2022-12-08T16:50:53.942Z,5.10
2022-12-08T16:53:22.623Z,7.30
2022-12-08T16:55:52.529Z,7.37
2022-12-08T16:58:21.629Z,6.40
2022-12-08T17:00:50.429Z,9.20
2022-12-08T17:03:19.348Z,8.57
2022-12-08T17:05:47.912Z,9.57
2022-12-08T17:08:16.316Z,8.60
2022-12-08T17:11:04.774Z,7.77
2022-12-08T17:13:34.683Z,7.40
2022-12-08T17:16:03.188Z,7.13
2022-12-08T17:18:31.633Z,6.90
2022-12-08T17:21:00.123Z,7.67
2022-12-08T17:23:28.517Z,7.63
2022-12-08T17:26:00.676Z,8.00
2022-12-08T17:28:51.908Z,7.03
2022-12-08T17:31:19.004Z,6.37
2022-12-08T17:33:47.410Z,8.63
2022-12-08T17:36:17.435Z,6.93
2022-12-08T17:38:46.106Z,8.97
2022-12-08T17:41:14.519Z,8.40
2022-12-08T17:43:42.998Z,6.80
2022-12-08T17:46:11.416Z,9.43
2022-12-08T17:48:41.157Z,11.03
2022-12-08T17:51:11.042Z,8.93
2022-12-08T17:53:40.782Z,7.93
2022-12-08T17:56:16.337Z,8.03
2022-12-08T17:58:46.620Z,9.07
2022-12-08T18:01:18.309Z,8.37
2022-12-08T18:03:48.093Z,7.67
2022-12-08T18:06:17.695Z,6.23
2022-12-08T18:08:46.284Z,6.93
2022-12-08T18:11:15.774Z,5.37
2022-12-08T18:13:45.519Z,5.93
2022-12-08T18:16:14.165Z,7.23
2022-12-08T18:18:42.650Z,5.37
2022-12-08T18:21:12.423Z,5.37
2022-12-08T18:23:40.811Z,6.50
2022-12-08T18:26:10.118Z,5.73
2022-12-08T18:28:38.894Z,4.50
2022-12-08T18:31:09.793Z,3.80
2022-12-08T18:33:38.692Z,6.67
2022-12-08T18:36:09.274Z,5.20
2022-12-08T18:38:39.364Z,4.77
2022-12-08T18:41:08.432Z,4.43
2022-12-08T18:43:36.986Z,5.30
2022-12-08T18:46:07.622Z,9.03
2022-12-08T18:48:36.146Z,5.67
2022-12-08T18:51:04.517Z,3.90
2022-12-08T18:53:32.930Z,4.57
2022-12-08T18:56:02.358Z,4.73
2022-12-08T18:58:30.715Z,5.30
2022-12-08T19:00:59.136Z,5.23
2022-12-08T19:03:27.881Z,4.57
2022-12-08T19:06:03.557Z,4.87
2022-12-08T19:08:32.049Z,3.83
2022-12-08T19:11:00.775Z,4.33
2022-12-08T19:13:30.562Z,4.60
2022-12-08T19:15:59.144Z,5.00
2022-12-08T19:18:27.683Z,4.87
2022-12-08T19:20:56.947Z,5.27
2022-12-08T19:23:25.461Z,5.70
2022-12-08T19:25:53.854Z,5.70
2022-12-08T19:28:21.927Z,4.73
2022-12-08T19:30:51.337Z,5.67
2022-12-08T19:33:20.041Z,5.30
2022-12-08T19:35:52.624Z,5.73
2022-12-08T19:38:21.369Z,5.07
2022-12-08T19:41:07.221Z,5.60
2022-12-08T19:43:53.319Z,5.37
2022-12-08T19:46:23.190Z,5.37
2022-12-08T19:48:51.707Z,5.73
2022-12-08T19:51:20.065Z,5.77
2022-12-08T19:53:48.387Z,4.70
2022-12-08T19:56:16.748Z,5.03
2022-12-08T19:58:45.169Z,6.57
2022-12-08T20:01:13.635Z,6.20
2022-12-08T20:03:43.484Z,6.63
2022-12-08T20:06:13.440Z,5.10
2022-12-08T20:08:44.917Z,6.20
2022-12-08T20:11:17.343Z,5.37
2022-12-08T20:13:47.659Z,5.70
2022-12-08T20:16:16.754Z,7.40
2022-12-08T20:18:48.582Z,6.27
2022-12-08T20:21:17.381Z,6.43
2022-12-08T20:23:48.728Z,6.53
2022-12-08T20:26:17.942Z,6.83
2022-12-08T20:28:46.638Z,6.03
2022-12-08T20:31:19.893Z,8.27
2022-12-08T20:33:49.866Z,6.87
2022-12-08T20:36:19.418Z,7.73
2022-12-08T20:38:47.893Z,7.20
2022-12-08T20:41:16.701Z,6.87
2022-12-08T20:43:45.138Z,6.20
2022-12-08T20:46:14.630Z,6.17
2022-12-08T20:48:43.228Z,6.70
2022-12-08T20:51:15.564Z,7.67
2022-12-08T20:53:44.122Z,7.67
2022-12-08T20:56:15.963Z,6.93
2022-12-08T20:58:44.381Z,6.43
2022-12-08T21:01:13.097Z,8.27
2022-12-08T21:03:41.837Z,6.90
2022-12-08T21:06:10.963Z,6.33
2022-12-08T21:08:41.717Z,7.33
2022-12-08T21:11:10.952Z,7.23
2022-12-08T21:13:39.807Z,6.37
2022-12-08T21:16:09.526Z,7.63
2022-12-08T21:18:39.805Z,7.13
2022-12-08T21:21:09.506Z,7.63
2022-12-08T21:23:38.400Z,7.63
2022-12-08T21:26:13.103Z,9.07
2022-12-08T21:28:41.904Z,7.97
2022-12-08T21:31:10.894Z,9.13
2022-12-08T21:33:39.378Z,9.33
2022-12-08T21:36:09.510Z,7.97
2022-12-08T21:38:37.901Z,7.50
2022-12-08T21:41:06.920Z,8.17
2022-12-08T21:43:36.948Z,8.43
2022-12-08T21:46:05.621Z,7.20
2022-12-08T21:48:34.200Z,9.57
2022-12-08T21:51:05.384Z,8.93
2022-12-08T21:53:33.900Z,8.33
2022-12-08T21:56:02.601Z,9.77
2022-12-08T21:58:32.666Z,8.53
2022-12-08T22:01:07.923Z,7.53
2022-12-08T22:03:36.581Z,8.53
2022-12-08T22:06:06.388Z,8.73
2022-12-08T22:08:35.034Z,8.67
2022-12-08T22:11:04.170Z,8.33
2022-12-08T22:13:32.758Z,8.33
2022-12-08T22:16:02.333Z,7.53
2022-12-08T22:18:32.781Z,8.93
2022-12-08T22:21:01.253Z,7.57
2022-12-08T22:23:30.426Z,8.23
2022-12-08T22:25:59.279Z,10.50
2022-12-08T22:28:28.377Z,8.73
2022-12-08T22:30:56.754Z,9.07
2022-12-08T22:33:25.147Z,8.00
2022-12-08T22:35:58.650Z,8.17
2022-12-08T22:38:27.254Z,8.60
2022-12-08T22:40:55.881Z,8.80
2022-12-08T22:43:24.608Z,6.77
2022-12-08T22:45:53.189Z,6.90
2022-12-08T22:48:21.687Z,8.47
2022-12-08T22:50:50.250Z,8.37
2022-12-08T22:53:20.343Z,9.03
2022-12-08T22:55:48.879Z,8.03
2022-12-08T22:58:17.114Z,6.87
2022-12-08T23:00:45.470Z,7.73
2022-12-08T23:03:14.044Z,8.93
2022-12-08T23:05:43.162Z,7.43
2022-12-08T23:08:15.433Z,8.03
2022-12-08T23:10:45.878Z,8.10
2022-12-08T23:13:15.242Z,7.67
2022-12-08T23:15:43.679Z,8.33
2022-12-08T23:18:15.172Z,7.87
2022-12-08T23:20:44.120Z,8.70
2022-12-08T23:23:12.557Z,8.10
2022-12-08T23:25:42.163Z,7.80
2022-12-08T23:28:13.207Z,8.10
2022-12-08T23:30:41.948Z,6.83
2022-12-08T23:33:10.642Z,8.17
2022-12-08T23:35:39.513Z,8.90
2022-12-08T23:38:08.128Z,8.33
2022-12-08T23:40:36.569Z,8.17
2022-12-08T23:43:07.092Z,8.33
2022-12-08T23:45:37.194Z,9.93
2022-12-08T23:48:05.852Z,11.40
2022-12-08T23:50:34.434Z,9.83
2022-12-08T23:53:02.882Z,9.37
2022-12-08T23:55:31.446Z,9.37
2022-12-08T23:57:59.987Z,9.03
